Time;durP1;ratioP1;P1;durP2;ratioP2;P2;SDS_P1;SDS_P2;PMS_P1;PMS_P2;Temp;Humidity;BMP_temperature;BMP_pressure;BME280_temperature;BME280_humidity;BME280_pressure;Samples;Min_cycle;Max_cycle;Signal;HPM_P1;HPM_P2
2021/05/12 00:00:17;;;;;;;4.63;3.77;;;13.00;99.90;;;;;;5013039;28;20437;-83
2021/05/12 00:02:44;;;;;;;6.37;3.70;;;13.00;99.90;;;;;;5014861;28;20487;-79
2021/05/12 00:05:12;;;;;;;4.93;3.70;;;13.00;99.90;;;;;;4997936;28;20441;-82
2021/05/12 00:07:39;;;;;;;6.20;3.50;;;13.00;99.90;;;;;;4999801;28;20556;-81
2021/05/12 00:10:10;;;;;;;6.13;3.73;;;13.00;99.90;;;;;;5006037;28;20437;-77
2021/05/12 00:12:38;;;;;;;4.57;3.63;;;13.00;99.90;;;;;;5011103;28;20555;-79
2021/05/12 00:15:11;;;;;;;3.63;3.23;;;13.00;99.90;;;;;;5002202;28;20807;-80
2021/05/12 00:17:39;;;;;;;6.10;3.40;;;13.00;99.90;;;;;;4993536;28;20539;-80
2021/05/12 00:20:08;;;;;;;4.63;3.60;;;12.90;99.90;;;;;;5010223;28;20453;-80
2021/05/12 00:25:06;;;;;;;4.40;3.97;;;13.00;99.90;;;;;;5024759;28;20505;-81
2021/05/12 00:27:34;;;;;;;11.13;4.70;;;13.00;99.90;;;;;;5022798;28;20461;-82
2021/05/12 00:30:02;;;;;;;6.87;3.90;;;12.90;99.90;;;;;;5013329;28;20429;-79
2021/05/12 00:32:30;;;;;;;6.93;4.33;;;12.90;99.90;;;;;;5004572;28;20520;-80
2021/05/12 00:34:56;;;;;;;5.70;4.90;;;13.00;99.90;;;;;;4995106;28;20429;-80
2021/05/12 00:37:23;;;;;;;6.30;4.17;;;13.00;99.90;;;;;;5011138;28;20541;-82
2021/05/12 00:39:50;;;;;;;5.83;4.97;;;12.90;99.90;;;;;;5009702;28;20547;-80
2021/05/12 00:42:17;;;;;;;6.07;4.43;;;12.90;99.90;;;;;;5009118;28;20460;-82
2021/05/12 00:44:44;;;;;;;10.30;5.00;;;12.90;99.90;;;;;;5013049;28;20433;-85
2021/05/12 00:47:11;;;;;;;7.30;5.13;;;13.00;99.90;;;;;;5011536;28;20481;-79
2021/05/12 00:49:38;;;;;;;8.50;4.80;;;12.90;99.90;;;;;;5029117;28;20444;-82
2021/05/12 00:52:05;;;;;;;10.13;5.43;;;13.00;99.90;;;;;;4998222;28;20476;-82
2021/05/12 00:54:32;;;;;;;10.97;5.23;;;13.00;99.90;;;;;;4994521;28;20429;-82
2021/05/12 00:56:59;;;;;;;5.67;5.00;;;12.90;99.90;;;;;;5009328;28;20508;-81
2021/05/12 00:59:32;;;;;;;5.13;4.43;;;13.00;99.90;;;;;;4994756;28;20425;-83
2021/05/12 01:01:59;;;;;;;8.40;5.90;;;13.00;99.90;;;;;;5012718;28;20456;-81
2021/05/12 01:04:26;;;;;;;11.03;5.40;;;13.00;99.90;;;;;;5029094;28;20464;-83
2021/05/12 01:06:53;;;;;;;7.53;5.57;;;13.00;99.90;;;;;;4995990;28;20789;-81
2021/05/12 01:09:22;;;;;;;8.67;6.33;;;12.90;99.90;;;;;;5012879;28;20449;-84
2021/05/12 01:11:49;;;;;;;8.20;5.70;;;12.90;99.90;;;;;;5009963;28;20847;-83
2021/05/12 01:14:16;;;;;;;7.37;6.67;;;12.90;99.90;;;;;;4992641;28;20516;-82
2021/05/12 01:16:43;;;;;;;7.37;6.40;;;12.90;99.90;;;;;;4976659;28;20541;-83
2021/05/12 01:19:11;;;;;;;8.13;6.60;;;12.90;99.90;;;;;;4994014;28;20492;-81
2021/05/12 01:21:38;;;;;;;11.17;7.30;;;13.00;99.90;;;;;;5002550;28;20516;-81
2021/05/12 01:24:06;;;;;;;8.33;6.70;;;13.00;99.90;;;;;;5008621;28;20511;-84
2021/05/12 01:26:33;;;;;;;9.80;6.40;;;12.90;99.90;;;;;;4999125;28;20870;-84
2021/05/12 01:29:00;;;;;;;9.37;7.40;;;12.90;99.90;;;;;;5011856;28;20492;-82
2021/05/12 01:31:39;;;;;;;11.63;7.83;;;12.90;99.90;;;;;;5013656;28;20844;-80
2021/05/12 01:34:13;;;;;;;12.53;7.30;;;12.90;99.90;;;;;;5011470;28;21032;-83
2021/05/12 01:36:41;;;;;;;8.13;7.23;;;12.80;99.90;;;;;;5008353;28;20494;-83
2021/05/12 01:39:09;;;;;;;10.27;6.93;;;12.80;99.90;;;;;;5000747;28;20496;-80
2021/05/12 01:41:36;;;;;;;8.80;7.47;;;12.70;99.90;;;;;;5008368;28;20948;-84
2021/05/12 01:44:08;;;;;;;9.93;8.23;;;12.80;99.90;;;;;;4994403;28;20825;-81
2021/05/12 01:46:36;;;;;;;9.43;7.50;;;12.80;99.90;;;;;;4992360;28;20445;-83
2021/05/12 01:49:04;;;;;;;9.00;8.20;;;12.80;99.90;;;;;;5008257;28;20516;-81
2021/05/12 01:51:31;;;;;;;13.77;8.43;;;12.80;99.90;;;;;;4992756;28;20950;-82
2021/05/12 01:54:00;;;;;;;9.43;8.23;;;12.80;99.90;;;;;;4993161;28;20983;-82
2021/05/12 01:56:27;;;;;;;7.97;7.17;;;12.80;99.90;;;;;;4993953;28;20470;-83
2021/05/12 01:58:54;;;;;;;8.77;7.87;;;12.80;99.90;;;;;;5010630;28;20970;-82
2021/05/12 02:01:21;;;;;;;9.03;8.17;;;12.80;99.90;;;;;;5027538;28;20847;-82
2021/05/12 02:03:48;;;;;;;12.77;8.40;;;12.70;99.90;;;;;;5011414;28;20461;-82
2021/05/12 02:06:15;;;;;;;8.77;8.00;;;12.60;99.90;;;;;;5025679;28;20895;-82
2021/05/12 02:08:42;;;;;;;9.80;8.80;;;12.60;99.90;;;;;;5011154;28;20464;-81
2021/05/12 02:11:08;;;;;;;8.60;7.83;;;12.60;99.90;;;;;;5012065;28;20429;-84
2021/05/12 02:13:36;;;;;;;9.30;8.20;;;12.60;99.90;;;;;;5011138;28;20551;-81
2021/05/12 02:16:06;;;;;;;11.77;8.50;;;12.60;99.90;;;;;;5011681;28;20567;-83
2021/05/12 02:18:34;;;;;;;11.70;8.97;;;12.60;99.90;;;;;;5010855;28;20461;-82
2021/05/12 02:21:01;;;;;;;9.50;7.93;;;12.60;99.90;;;;;;5009937;28;20489;-81
2021/05/12 02:23:29;;;;;;;10.30;8.47;;;12.60;99.90;;;;;;5010760;28;20876;-84
2021/05/12 02:25:57;;;;;;;14.23;9.20;;;12.60;99.90;;;;;;5003037;28;20465;-82
2021/05/12 02:28:24;;;;;;;10.87;9.40;;;12.50;99.90;;;;;;5007417;28;20458;-80
2021/05/12 02:30:51;;;;;;;13.53;8.80;;;12.50;99.90;;;;;;4991462;28;20870;-83
2021/05/12 02:33:19;;;;;;;10.80;9.67;;;12.50;99.90;;;;;;4992427;28;20473;-81
2021/05/12 02:35:46;;;;;;;13.43;10.53;;;12.50;99.90;;;;;;4992286;28;20442;-82
2021/05/12 02:38:13;;;;;;;12.80;9.57;;;12.60;99.90;;;;;;4993943;28;20524;-83
2021/05/12 02:40:40;;;;;;;10.67;9.40;;;12.60;99.90;;;;;;5005509;28;20478;-82
2021/05/12 02:43:07;;;;;;;10.07;9.07;;;12.60;99.90;;;;;;4992468;28;20934;-81
2021/05/12 02:45:34;;;;;;;15.17;11.17;;;12.60;99.90;;;;;;5003977;28;20494;-82
2021/05/12 02:48:04;;;;;;;16.50;10.53;;;12.50;99.90;;;;;;5010991;28;20728;-82
2021/05/12 02:50:40;;;;;;;16.37;11.37;;;12.50;99.90;;;;;;4993516;28;20469;-80
2021/05/12 02:53:09;;;;;;;11.77;10.67;;;12.50;99.90;;;;;;5000822;28;20467;-80
2021/05/12 02:55:37;;;;;;;15.40;10.57;;;12.60;99.90;;;;;;5010616;28;20451;-79
2021/05/12 02:58:06;;;;;;;12.80;9.93;;;12.60;99.90;;;;;;5025770;28;20476;-80
2021/05/12 03:00:35;;;;;;;12.30;10.07;;;12.50;99.90;;;;;;5011120;28;20471;-82
2021/05/12 03:03:03;;;;;;;12.20;10.13;;;12.50;99.90;;;;;;5011143;28;20556;-81
2021/05/12 03:05:31;;;;;;;12.40;10.67;;;12.50;99.90;;;;;;5007067;28;20477;-82
2021/05/12 03:07:59;;;;;;;11.90;10.63;;;12.50;99.90;;;;;;4993348;28;20469;-81
2021/05/12 03:10:28;;;;;;;12.37;11.07;;;12.50;99.90;;;;;;4996294;28;20437;-82
2021/05/12 03:12:55;;;;;;;15.53;12.73;;;12.50;99.90;;;;;;5010989;28;20469;-83
2021/05/12 03:15:24;;;;;;;13.20;11.90;;;12.40;99.90;;;;;;5011235;28;20989;-81
2021/05/12 03:17:55;;;;;;;13.23;10.90;;;12.40;99.90;;;;;;5012689;28;20461;-81
2021/05/12 03:20:25;;;;;;;17.57;10.60;;;12.40;99.90;;;;;;4996859;28;20897;-81
2021/05/12 03:22:52;;;;;;;14.33;11.47;;;12.40;99.90;;;;;;5026792;28;20461;-82
2021/05/12 03:25:20;;;;;;;11.67;10.43;;;12.40;99.90;;;;;;5026567;28;20456;-81
2021/05/12 03:27:47;;;;;;;15.47;10.73;;;12.40;99.90;;;;;;5023470;28;20489;-79
2021/05/12 03:30:24;;;;;;;13.47;9.20;;;12.50;99.90;;;;;;5010486;28;20433;-79
2021/05/12 03:32:51;;;;;;;12.50;9.60;;;12.40;99.90;;;;;;4974340;28;20532;-81
2021/05/12 03:35:18;;;;;;;13.03;9.43;;;12.50;99.90;;;;;;4991372;28;21013;-82
2021/05/12 03:37:46;;;;;;;10.03;8.50;;;12.40;99.90;;;;;;5010149;28;20553;-80
2021/05/12 03:40:16;;;;;;;9.50;8.17;;;12.40;99.90;;;;;;5011681;28;20444;-81
2021/05/12 03:42:43;;;;;;;10.10;8.00;;;12.40;99.90;;;;;;4995036;28;20900;-82
2021/05/12 03:45:11;;;;;;;8.83;7.13;;;12.30;99.90;;;;;;5007364;28;20512;-80
2021/05/12 03:47:42;;;;;;;8.70;7.10;;;12.30;99.90;;;;;;4991410;28;20462;-81
2021/05/12 03:50:11;;;;;;;8.40;7.00;;;12.40;99.90;;;;;;5010554;28;20782;-80
2021/05/12 03:52:38;;;;;;;12.53;6.53;;;12.40;99.90;;;;;;5009340;28;20468;-81
2021/05/12 03:55:07;;;;;;;7.50;5.67;;;12.40;99.90;;;;;;5009635;28;20495;-79
2021/05/12 03:57:34;;;;;;;6.97;6.10;;;12.40;99.90;;;;;;5005999;28;20523;-81
2021/05/12 04:00:03;;;;;;;10.47;6.57;;;12.40;99.90;;;;;;4993967;28;20473;-80
2021/05/12 04:02:39;;;;;;;7.53;5.60;;;12.40;99.90;;;;;;4995394;28;20465;-81
2021/05/12 04:05:07;;;;;;;9.00;5.30;;;12.30;99.90;;;;;;5020761;28;20465;-80
2021/05/12 04:07:34;;;;;;;8.97;5.50;;;12.30;99.90;;;;;;4998742;28;20967;-80
2021/05/12 04:10:03;;;;;;;6.53;5.00;;;12.30;99.90;;;;;;5004929;28;20437;-80
2021/05/12 04:12:31;;;;;;;8.10;5.07;;;12.30;99.90;;;;;;5009331;28;20445;-79
2021/05/12 04:14:58;;;;;;;9.90;5.30;;;12.30;99.90;;;;;;4995366;28;20444;-79
2021/05/12 04:17:26;;;;;;;4.60;4.20;;;12.40;99.90;;;;;;4977294;28;21018;-80
2021/05/12 04:19:54;;;;;;;5.80;4.23;;;12.30;99.90;;;;;;5005487;28;20444;-79
2021/05/12 04:22:21;;;;;;;5.90;5.03;;;12.30;99.90;;;;;;5014263;28;20887;-78
2021/05/12 04:24:49;;;;;;;4.77;4.27;;;12.40;99.90;;;;;;5000238;28;20462;-78
2021/05/12 04:27:17;;;;;;;4.90;4.40;;;12.30;99.90;;;;;;5018936;28;20473;-81
2021/05/12 04:29:45;;;;;;;5.00;3.80;;;12.40;99.90;;;;;;5014758;28;20475;-81
2021/05/12 04:32:13;;;;;;;8.47;4.40;;;12.40;99.90;;;;;;5012405;28;20439;-79
2021/05/12 04:34:40;;;;;;;5.27;3.70;;;12.40;99.90;;;;;;5001074;28;20867;-81
2021/05/12 04:37:07;;;;;;;4.03;3.33;;;12.30;99.90;;;;;;4998670;28;20462;-81
2021/05/12 04:39:34;;;;;;;7.87;4.00;;;12.30;99.90;;;;;;5028911;28;20464;-80
2021/05/12 04:42:01;;;;;;;3.67;3.10;;;12.30;99.90;;;;;;5013062;28;20472;-81
2021/05/12 04:44:28;;;;;;;6.60;4.37;;;12.30;99.90;;;;;;5029398;28;20456;-81
2021/05/12 04:46:56;;;;;;;7.03;3.50;;;12.30;99.90;;;;;;5028342;28;20507;-80
2021/05/12 04:49:25;;;;;;;7.70;4.10;;;12.30;99.90;;;;;;5014268;28;20444;-79
2021/05/12 04:51:59;;;;;;;4.80;3.17;;;12.30;99.90;;;;;;4989913;28;20448;-80
2021/05/12 04:54:26;;;;;;;4.30;3.73;;;12.30;99.90;;;;;;5014089;28;20420;-81
2021/05/12 04:56:52;;;;;;;5.87;3.00;;;12.30;99.90;;;;;;5021782;28;20473;-79
2021/05/12 04:59:21;;;;;;;8.57;3.30;;;12.30;99.90;;;;;;4993981;28;20458;-79
2021/05/12 05:01:48;;;;;;;5.30;3.90;;;12.30;99.90;;;;;;5003636;28;20919;-77
2021/05/12 05:04:17;;;;;;;10.90;5.80;;;12.40;99.90;;;;;;5007876;28;20856;-80
2021/05/12 05:06:44;;;;;;;4.43;3.20;;;12.40;99.90;;;;;;5002181;28;20500;-81
2021/05/12 05:09:11;;;;;;;5.43;4.03;;;12.40;99.90;;;;;;4996943;28;20528;-80
2021/05/12 05:11:38;;;;;;;5.00;3.40;;;12.40;99.90;;;;;;5009141;28;20433;-80
2021/05/12 05:14:08;;;;;;;4.07;3.20;;;12.50;99.90;;;;;;5013188;28;21002;-80
2021/05/12 05:16:36;;;;;;;7.40;4.40;;;12.60;99.90;;;;;;5012798;28;20488;-77
2021/05/12 05:19:03;;;;;;;4.40;3.50;;;12.50;99.90;;;;;;5012553;28;20464;-80
2021/05/12 05:21:30;;;;;;;6.03;3.43;;;12.60;99.90;;;;;;5010496;28;20558;-76
2021/05/12 05:23:58;;;;;;;5.90;3.93;;;12.60;99.90;;;;;;5011192;28;20484;-80
2021/05/12 05:26:26;;;;;;;6.77;3.90;;;12.60;99.90;;;;;;5007902;28;20528;-79
2021/05/12 05:28:56;;;;;;;5.90;3.53;;;12.60;99.90;;;;;;4994089;28;20528;-79
2021/05/12 05:31:23;;;;;;;8.03;4.00;;;12.60;99.90;;;;;;5027530;28;20447;-80
2021/05/12 05:34:08;;;;;;;6.20;3.20;;;12.60;99.90;;;;;;4993183;28;20836;-79
2021/05/12 05:36:54;;;;;;;5.60;4.00;;;12.70;99.90;;;;;;4998125;28;20560;-80
2021/05/12 05:39:39;;;;;;;6.67;3.20;;;12.70;99.90;;;;;;5011036;28;20782;-79
2021/05/12 05:42:25;;;;;;;9.03;3.90;;;12.80;99.90;;;;;;4992757;28;20504;-80
2021/05/12 05:45:11;;;;;;;7.80;4.13;;;12.90;99.90;;;;;;5003443;28;20546;-79
2021/05/12 05:47:56;;;;;;;6.03;3.50;;;12.80;99.90;;;;;;5012276;28;20464;-82
2021/05/12 05:50:42;;;;;;;6.13;2.87;;;12.90;99.90;;;;;;5010675;28;20841;-76
2021/05/12 05:53:28;;;;;;;4.93;4.00;;;12.90;99.90;;;;;;5000348;28;20452;-77
2021/05/12 05:56:14;;;;;;;4.10;3.67;;;13.00;99.90;;;;;;5011628;28;20475;-80
2021/05/12 05:58:59;;;;;;;8.10;3.57;;;13.00;99.90;;;;;;5012410;28;20460;-77
2021/05/12 06:01:44;;;;;;;6.70;3.60;;;13.00;99.90;;;;;;5011012;28;20460;-76
2021/05/12 06:04:11;;;;;;;4.27;3.13;;;13.00;99.90;;;;;;5015835;28;20500;-76
2021/05/12 06:06:57;;;;;;;6.73;3.50;;;13.00;99.90;;;;;;5018564;28;20826;-77
2021/05/12 06:09:43;;;;;;;5.90;3.10;;;13.00;99.90;;;;;;5006037;28;20496;-79
2021/05/12 06:12:28;;;;;;;6.17;4.63;;;13.00;99.90;;;;;;4999976;28;20456;-79
2021/05/12 06:15:25;;;;;;;7.10;4.57;;;13.20;99.90;;;;;;4992574;28;21145;-78
2021/05/12 06:18:10;;;;;;;10.70;6.67;;;13.30;99.90;;;;;;4991874;28;20835;-77
2021/05/12 06:20:56;;;;;;;9.43;5.03;;;13.60;99.90;;;;;;5001553;28;20455;-78
2021/05/12 06:23:42;;;;;;;5.00;4.50;;;13.80;99.90;;;;;;5001706;28;20581;-79
2021/05/12 06:26:27;;;;;;;7.00;4.10;;;13.90;99.90;;;;;;5010274;28;21060;-77
2021/05/12 06:29:13;;;;;;;6.37;4.37;;;14.00;99.90;;;;;;4998964;28;20768;-78
2021/05/12 06:31:59;;;;;;;7.23;5.30;;;14.20;99.90;;;;;;4997734;28;20431;-78
2021/05/12 06:34:44;;;;;;;10.20;5.97;;;14.40;99.90;;;;;;5012408;28;20429;-78
2021/05/12 06:37:30;;;;;;;6.77;5.53;;;14.70;99.90;;;;;;5009460;28;20874;-78
2021/05/12 06:40:16;;;;;;;5.40;4.57;;;15.20;99.90;;;;;;5012108;28;20427;-76
2021/05/12 06:42:43;;;;;;;5.80;4.80;;;15.50;99.90;;;;;;4982601;28;20467;-78
2021/05/12 06:45:12;;;;;;;8.90;5.20;;;15.60;99.90;;;;;;5011912;28;20460;-75
2021/05/12 06:47:41;;;;;;;7.10;5.53;;;15.80;99.90;;;;;;5006559;28;20575;-76
2021/05/12 06:50:08;;;;;;;8.60;5.30;;;15.80;99.90;;;;;;4974832;28;20485;-75
2021/05/12 06:52:35;;;;;;;6.00;4.77;;;15.70;99.90;;;;;;5013970;28;20978;-75
2021/05/12 06:55:03;;;;;;;9.17;6.00;;;15.70;99.90;;;;;;5022163;28;20795;-77
2021/05/12 06:57:30;;;;;;;8.47;5.23;;;15.70;99.90;;;;;;5009927;28;20457;-79
2021/05/12 06:59:57;;;;;;;5.33;4.03;;;15.60;99.90;;;;;;4990092;28;20440;-74
2021/05/12 07:02:41;;;;;;;6.67;4.47;;;15.60;99.90;;;;;;4992420;28;20519;-78
2021/05/12 07:05:09;;;;;;;5.70;4.60;;;15.60;99.90;;;;;;5000073;28;20470;-76
2021/05/12 07:07:36;;;;;;;7.00;4.90;;;15.70;99.90;;;;;;5000542;28;21082;-77
2021/05/12 07:10:03;;;;;;;8.50;5.10;;;15.60;99.90;;;;;;4999431;28;20966;-78
2021/05/12 07:12:30;;;;;;;7.03;4.63;;;15.50;99.90;;;;;;5010641;28;20468;-78
2021/05/12 07:14:57;;;;;;;5.63;4.13;;;15.50;99.90;;;;;;5006306;28;20482;-75
2021/05/12 07:17:24;;;;;;;5.33;4.27;;;15.60;99.90;;;;;;5002257;28;20466;-77
2021/05/12 07:19:51;;;;;;;6.70;3.40;;;15.70;99.90;;;;;;5010106;28;20444;-77
2021/05/12 07:22:18;;;;;;;6.93;4.60;;;15.70;99.90;;;;;;5010435;28;20453;-78
2021/05/12 07:24:45;;;;;;;7.63;5.33;;;15.80;99.90;;;;;;5011716;28;20467;-78
2021/05/12 07:27:12;;;;;;;5.87;4.43;;;15.90;99.90;;;;;;5017843;28;20469;-77
2021/05/12 07:29:40;;;;;;;5.10;4.60;;;15.90;99.90;;;;;;4995327;28;20460;-78
2021/05/12 07:32:07;;;;;;;9.77;5.17;;;15.90;99.90;;;;;;5011221;28;20839;-81
2021/05/12 07:34:34;;;;;;;4.87;4.40;;;15.80;99.90;;;;;;5009508;28;20445;-78
2021/05/12 07:37:02;;;;;;;8.00;5.13;;;15.70;99.90;;;;;;5009869;28;20469;-79
2021/05/12 07:39:31;;;;;;;9.43;5.33;;;15.50;99.90;;;;;;4995002;28;20967;-79
2021/05/12 07:42:02;;;;;;;5.83;4.90;;;15.10;99.90;;;;;;5006361;28;20880;-78
2021/05/12 07:44:29;;;;;;;10.63;5.67;;;14.60;99.90;;;;;;5002519;28;20473;-78
2021/05/12 07:46:56;;;;;;;6.53;5.27;;;14.40;99.90;;;;;;5000247;28;20864;-78
2021/05/12 07:49:25;;;;;;;6.00;5.40;;;14.40;99.90;;;;;;5001120;28;20529;-77
2021/05/12 07:51:56;;;;;;;7.33;5.67;;;14.30;99.90;;;;;;5005596;28;20965;-80
2021/05/12 07:54:23;;;;;;;7.30;4.47;;;14.30;99.90;;;;;;5020721;28;20441;-76
2021/05/12 07:56:55;;;;;;;8.70;6.10;;;14.20;99.90;;;;;;5010000;28;20458;-78
2021/05/12 07:59:26;;;;;;;10.47;6.33;;;14.20;99.90;;;;;;4984900;28;20444;-79
2021/05/12 08:01:56;;;;;;;8.27;7.40;;;14.30;99.90;;;;;;4997197;28;20435;-76
2021/05/12 08:04:23;;;;;;;10.53;7.73;;;14.40;99.90;;;;;;5005608;28;20442;-78
2021/05/12 08:06:50;;;;;;;7.90;6.60;;;14.70;99.90;;;;;;4997032;28;20459;-81
2021/05/12 08:09:21;;;;;;;12.87;7.30;;;14.90;99.90;;;;;;4987096;28;20505;-81
2021/05/12 08:11:49;;;;;;;7.00;6.00;;;15.10;99.90;;;;;;4997828;28;20494;-78
2021/05/12 08:14:16;;;;;;;8.87;6.30;;;15.30;99.90;;;;;;4993950;28;20476;-80
2021/05/12 08:16:46;;;;;;;10.50;6.50;;;15.50;99.90;;;;;;5005665;28;20508;-78
2021/05/12 08:19:24;;;;;;;8.53;5.90;;;15.60;99.90;;;;;;4977978;28;20456;-79
2021/05/12 08:21:57;;;;;;;10.20;7.60;;;15.80;99.90;;;;;;4996029;28;20444;-81
2021/05/12 08:24:26;;;;;;;11.37;6.10;;;16.00;99.90;;;;;;4992274;28;20460;-80
2021/05/12 08:27:03;;;;;;;9.20;7.37;;;16.20;99.90;;;;;;4998842;28;20476;-79
2021/05/12 08:29:36;;;;;;;8.60;6.07;;;16.20;99.90;;;;;;4993870;28;20437;-80
2021/05/12 08:32:05;;;;;;;10.43;6.97;;;16.30;99.90;;;;;;5023595;28;20508;-78
2021/05/12 08:34:33;;;;;;;8.37;6.70;;;16.40;99.90;;;;;;5028728;28;20444;-79
2021/05/12 08:37:00;;;;;;;12.97;9.93;;;16.40;99.90;;;;;;4998889;28;20458;-80
2021/05/12 08:39:28;;;;;;;11.60;8.70;;;16.50;99.90;;;;;;4977572;28;20431;-81
2021/05/12 08:41:58;;;;;;;6.53;5.90;;;16.80;99.90;;;;;;5001522;28;20437;-82
2021/05/12 08:44:32;;;;;;;7.73;6.60;;;17.00;99.90;;;;;;5011462;28;20440;-79
2021/05/12 08:47:01;;;;;;;6.20;5.60;;;17.10;99.90;;;;;;4991813;28;20805;-81
2021/05/12 08:49:34;;;;;;;8.30;5.70;;;17.10;99.80;;;;;;5010489;28;20446;-81
2021/05/12 08:52:03;;;;;;;6.90;5.80;;;17.20;99.00;;;;;;5015705;28;20432;-80
2021/05/12 08:54:31;;;;;;;6.40;5.47;;;17.20;99.90;;;;;;5029887;28;20981;-79
2021/05/12 08:56:58;;;;;;;5.73;5.23;;;17.40;98.30;;;;;;5009176;28;20848;-78
2021/05/12 08:59:25;;;;;;;8.37;5.57;;;17.40;97.20;;;;;;5018704;28;20491;-81
2021/05/12 09:01:52;;;;;;;6.93;5.80;;;17.30;96.90;;;;;;5012934;28;20425;-78
2021/05/12 09:04:20;;;;;;;7.57;5.67;;;17.10;97.80;;;;;;5004422;28;20462;-80
2021/05/12 09:06:49;;;;;;;7.40;5.33;;;17.00;98.60;;;;;;4993250;28;20450;-78
2021/05/12 09:09:16;;;;;;;8.33;6.30;;;17.30;98.80;;;;;;5008065;28;20569;-79
2021/05/12 09:11:43;;;;;;;7.40;5.67;;;17.40;99.40;;;;;;5005938;28;20434;-77
2021/05/12 09:14:34;;;;;;;9.17;6.30;;;17.50;95.70;;;;;;5005765;28;20461;-78
2021/05/12 09:17:02;;;;;;;7.83;5.30;;;17.80;95.50;;;;;;5011826;28;20429;-79
2021/05/12 09:19:30;;;;;;;5.10;4.70;;;18.00;93.30;;;;;;4999985;28;20452;-78
2021/05/12 09:22:00;;;;;;;6.17;4.73;;;18.10;94.00;;;;;;5003924;28;20449;-80
2021/05/12 09:24:38;;;;;;;6.80;4.80;;;17.90;94.00;;;;;;5010588;28;20445;-82
2021/05/12 09:27:16;;;;;;;9.00;5.10;;;17.60;95.60;;;;;;5008855;28;20465;-81
2021/05/12 09:29:59;;;;;;;7.57;6.00;;;17.20;95.60;;;;;;5004908;28;20487;-81
2021/05/12 09:32:44;;;;;;;6.87;5.40;;;17.00;97.60;;;;;;5019105;28;20465;-83
2021/05/12 09:35:37;;;;;;;7.33;5.63;;;16.80;98.60;;;;;;5004815;28;20473;-81
2021/05/12 09:38:21;;;;;;;8.70;5.37;;;16.80;98.70;;;;;;5008905;28;20848;-83
2021/05/12 09:41:12;;;;;;;5.47;4.80;;;17.00;99.90;;;;;;4998104;28;20465;-84
2021/05/12 09:43:48;;;;;;;6.80;5.20;;;17.00;95.30;;;;;;4993584;28;20461;-81
2021/05/12 09:46:20;;;;;;;10.73;4.60;;;17.00;97.80;;;;;;5012962;28;20966;-82
2021/05/12 09:49:00;;;;;;;6.70;4.97;;;17.10;99.10;;;;;;5027930;28;20615;-82
2021/05/12 09:51:29;;;;;;;7.90;4.23;;;17.20;99.80;;;;;;5006904;28;21006;-82
2021/05/12 09:54:07;;;;;;;8.40;5.10;;;17.50;93.60;;;;;;4993505;28;20472;-82
2021/05/12 09:57:01;;;;;;;6.33;4.40;;;17.60;93.40;;;;;;5009850;28;20897;-82
2021/05/12 09:59:34;;;;;;;9.10;6.03;;;17.50;93.10;;;;;;5001287;28;20446;-83
2021/05/12 10:02:03;;;;;;;13.20;6.50;;;17.30;93.50;;;;;;4996939;28;20943;-81
2021/05/12 10:04:36;;;;;;;9.13;5.70;;;17.50;94.80;;;;;;4996590;28;20438;-81
2021/05/12 10:07:24;;;;;;;7.37;6.67;;;17.70;94.50;;;;;;5000565;28;20449;-82
2021/05/12 10:09:59;;;;;;;8.73;5.03;;;17.50;95.30;;;;;;5027624;28;20441;-82
2021/05/12 10:12:29;;;;;;;6.63;4.93;;;17.70;94.00;;;;;;5007087;28;20453;-83
2021/05/12 10:14:57;;;;;;;6.23;5.40;;;18.00;93.10;;;;;;4995040;28;20951;-81
2021/05/12 10:17:33;;;;;;;10.27;5.27;;;18.10;92.40;;;;;;5010649;28;20460;-83
2021/05/12 10:20:01;;;;;;;5.17;3.70;;;18.00;86.00;;;;;;5000615;28;20463;-82
2021/05/12 10:22:30;;;;;;;11.87;4.63;;;18.10;83.20;;;;;;5007565;28;20472;-82
2021/05/12 10:24:57;;;;;;;4.67;4.20;;;18.20;88.00;;;;;;5027185;28;20429;-82
2021/05/12 10:27:30;;;;;;;6.53;4.43;;;18.30;87.10;;;;;;5018246;28;20817;-82
2021/05/12 10:30:03;;;;;;;7.00;4.00;;;18.40;88.10;;;;;;5012213;28;20487;-82
2021/05/12 10:32:36;;;;;;;6.63;3.97;;;18.40;90.00;;;;;;5007613;28;20458;-82
2021/05/12 10:35:11;;;;;;;7.97;4.73;;;18.60;88.60;;;;;;4999812;28;20451;-82
2021/05/12 10:37:41;;;;;;;5.43;4.40;;;18.50;87.50;;;;;;5011535;28;20541;-82
2021/05/12 10:40:23;;;;;;;8.80;3.97;;;18.40;85.50;;;;;;5029901;28;20439;-81
2021/05/12 10:43:09;;;;;;;6.77;4.10;;;18.50;84.50;;;;;;5007951;28;20493;-83
2021/05/12 10:45:49;;;;;;;8.33;4.50;;;18.70;79.80;;;;;;4986134;28;20462;-79
2021/05/12 10:48:32;;;;;;;8.97;5.50;;;18.50;79.80;;;;;;5008379;28;20461;-82
2021/05/12 10:51:02;;;;;;;9.23;4.70;;;18.60;79.40;;;;;;5007805;28;20458;-83
2021/05/12 10:53:31;;;;;;;9.57;5.47;;;18.60;76.80;;;;;;5011741;28;20537;-82
2021/05/12 10:56:07;;;;;;;7.40;4.53;;;18.40;80.40;;;;;;5010011;28;20827;-81
2021/05/12 10:58:46;;;;;;;4.30;3.40;;;18.10;79.10;;;;;;4995632;28;20502;-82
2021/05/12 11:01:15;;;;;;;6.63;4.20;;;18.00;80.50;;;;;;5013399;28;20425;-82
2021/05/12 11:03:50;;;;;;;8.37;4.10;;;17.80;83.80;;;;;;5012544;28;20894;-82
2021/05/12 11:06:27;;;;;;;3.70;2.70;;;17.80;83.60;;;;;;4997106;28;20480;-82
2021/05/12 11:09:22;;;;;;;6.40;3.37;;;17.80;77.00;;;;;;4993096;28;20496;-83
2021/05/12 11:11:49;;;;;;;8.57;4.03;;;17.60;81.30;;;;;;4993786;28;20453;-83
2021/05/12 11:14:32;;;;;;;8.30;6.03;;;17.60;78.90;;;;;;5014950;28;20492;-83
2021/05/12 11:17:12;;;;;;;9.43;5.30;;;17.50;79.20;;;;;;4984901;28;21260;-82
2021/05/12 11:19:45;;;;;;;7.13;4.17;;;17.40;82.30;;;;;;5011622;28;21124;-83
2021/05/12 11:24:56;;;;;;;5.80;3.93;;;17.40;80.30;;;;;;4996577;28;20836;-81
2021/05/12 11:32:24;;;;;;;3.70;3.07;;;17.30;79.60;;;;;;4996795;28;20457;-82
2021/05/12 11:34:51;;;;;;;6.37;2.43;;;17.40;79.30;;;;;;5003609;28;20504;-82
2021/05/12 11:37:22;;;;;;;4.03;2.23;;;17.60;75.90;;;;;;5010271;28;20552;-82
2021/05/12 11:39:54;;;;;;;6.60;2.80;;;17.70;73.60;;;;;;5003157;28;20436;-82
2021/05/12 11:42:21;;;;;;;4.00;2.57;;;17.60;73.50;;;;;;5019256;28;20457;-83
2021/05/12 11:45:01;;;;;;;5.30;2.40;;;17.70;76.40;;;;;;5004108;28;20473;-82
2021/05/12 11:47:29;;;;;;;4.40;2.73;;;17.60;76.30;;;;;;5002771;28;20544;-83
2021/05/12 11:49:58;;;;;;;3.70;2.23;;;17.60;75.20;;;;;;4998837;28;20430;-82
2021/05/12 11:52:30;;;;;;;6.53;3.27;;;17.60;77.10;;;;;;5024647;28;20571;-77
2021/05/12 11:55:08;;;;;;;6.50;2.53;;;17.60;77.60;;;;;;5007243;28;20440;-79
2021/05/12 11:57:36;;;;;;;3.53;2.60;;;17.50;79.10;;;;;;4986140;28;20469;-82
2021/05/12 12:00:14;;;;;;;5.60;3.03;;;17.40;81.20;;;;;;5003563;28;20479;-80
2021/05/12 12:02:54;;;;;;;4.30;3.00;;;17.40;81.00;;;;;;5033256;28;20514;-82
2021/05/12 12:05:25;;;;;;;4.60;2.80;;;17.30;83.40;;;;;;5018643;28;20917;-80
2021/05/12 12:08:12;;;;;;;5.17;2.80;;;17.20;84.30;;;;;;5019092;28;20543;-78
2021/05/12 12:10:40;;;;;;;3.43;2.03;;;17.20;82.60;;;;;;5011706;28;20835;-82
2021/05/12 12:13:12;;;;;;;4.40;2.93;;;17.20;85.50;;;;;;5011280;28;20496;-81
2021/05/12 12:15:43;;;;;;;8.17;2.70;;;17.10;88.20;;;;;;5011450;28;20441;-81
2021/05/12 12:18:10;;;;;;;4.30;2.27;;;17.00;90.20;;;;;;5029252;28;20484;-82
2021/05/12 12:20:37;;;;;;;3.90;2.43;;;17.10;91.40;;;;;;5022650;28;20487;-82
2021/05/12 12:23:05;;;;;;;3.73;2.77;;;17.00;88.00;;;;;;4986760;28;20471;-81
2021/05/12 12:25:42;;;;;;;2.97;2.00;;;17.10;87.90;;;;;;4993627;28;20815;-80
2021/05/12 12:28:11;;;;;;;5.00;3.10;;;17.10;80.80;;;;;;5021797;28;20812;-80
2021/05/12 12:30:39;;;;;;;7.83;2.90;;;17.20;77.80;;;;;;5003582;28;20813;-82
2021/05/12 12:33:05;;;;;;;3.40;2.10;;;17.20;83.80;;;;;;5029204;28;20456;-82
2021/05/12 12:35:32;;;;;;;5.73;2.77;;;17.40;84.50;;;;;;5008538;28;21025;-80
2021/05/12 12:38:10;;;;;;;6.50;4.27;;;17.30;79.00;;;;;;4992791;28;20512;-79
2021/05/12 12:40:44;;;;;;;5.70;3.70;;;17.20;89.00;;;;;;4994563;28;20422;-79
2021/05/12 12:43:11;;;;;;;4.73;4.23;;;16.90;90.20;;;;;;4981343;28;20473;-78
2021/05/12 12:45:42;;;;;;;6.03;4.50;;;16.60;91.70;;;;;;5009032;28;20450;-83
2021/05/12 12:48:12;;;;;;;6.70;4.47;;;16.30;94.90;;;;;;5025952;28;20488;-83
2021/05/12 12:50:39;;;;;;;6.10;4.50;;;16.10;97.10;;;;;;5000730;28;20514;-83
2021/05/12 12:53:07;;;;;;;6.10;4.50;;;15.90;99.90;;;;;;5020366;28;20464;-81
2021/05/12 12:55:36;;;;;;;8.23;6.17;;;15.70;99.90;;;;;;4992494;28;20846;-84
2021/05/12 12:58:06;;;;;;;11.17;5.87;;;15.60;99.90;;;;;;5017331;28;20484;-79
2021/05/12 13:00:37;;;;;;;8.20;5.53;;;15.60;99.90;;;;;;5012051;28;20510;-83
2021/05/12 13:03:22;;;;;;;9.77;5.93;;;15.60;99.90;;;;;;4996824;28;20467;-83
2021/05/12 13:06:00;;;;;;;10.63;6.30;;;15.60;99.90;;;;;;5006322;28;20458;-81
2021/05/12 13:08:33;;;;;;;9.27;6.17;;;15.60;99.90;;;;;;5004557;28;20469;-85
2021/05/12 13:11:05;;;;;;;4.93;4.53;;;15.70;99.90;;;;;;5008834;28;20800;-82
2021/05/12 13:13:45;;;;;;;6.73;5.70;;;15.70;99.90;;;;;;4984715;28;20863;-82